CheckWX is a tool to help pilots better visualize weather data.  It is not intended as a substitute for an official pre-flight weather briefing.

12:08:17 UTC

LFPB METAR
Paris-Le Bourget Airport
Paris, France
Current

38 mins ago

LFPB 261130Z AUTO 02011KT 350V050 9999 2800 NSC 30/20 Q1022 NOSIG
Observed
Jun-26 @ 11:30 UTC
Wind
  • 020° at 11 KTS
Visibility
10,000+ meters
Flight Rules
VFR
Cloud Levels
  • Clear skies
Temperature
30°C / 86°F
Dewpoint
20°C / 68°F
Heat Index
32°C / 89°F
Humidity
55%
Altimeter
30.18" Hg
Pressure
1021.92 hPa
Previous

1 hour ago

LFPB 261100Z AUTO 02011KT 340V040 9999 3500 NSC 30/20 Q1022 TEMPO 04015G25KT
Observed
Jun-26 @ 11:00 UTC
Wind
  • 020° at 11 KTS
Visibility
10,000+ meters
Flight Rules
VFR
Cloud Levels
  • Clear skies
Temperature
30°C / 86°F
Dewpoint
20°C / 68°F
Heat Index
32°C / 89°F
Humidity
55%
Altimeter
30.18" Hg
Pressure
1021.92 hPa
Previous

2 hours ago

LFPB 261030Z AUTO 01010KT 320V040 9000 4100 NSC 30/20 Q1022 TEMPO 04015G25KT
Observed
Jun-26 @ 10:30 UTC
Wind
  • 010° at 10 KTS
Visibility
9,000 meters
Flight Rules
VFR
Cloud Levels
  • Clear skies
Temperature
30°C / 86°F
Dewpoint
20°C / 68°F
Heat Index
32°C / 89°F
Humidity
55%
Altimeter
30.18" Hg
Pressure
1021.92 hPa